Terminal Aerodrome Forecast
Issued by NWS

Home | Current Version | Previous Version | Text Only | Print | Product List | Glossary On
Versions: 1 2 3 4 5 6 7 8 9 10 11 12 13 14 15 16 17 18 19 20 21 22 23
000
FTUS43 KIND 260500
TAFHUF
TAF
KHUF 260526Z 2606/2706 07003KT P6SM OVC017
     FM260800 07003KT P6SM SCT020 SCT100 SCT250
     FM262000 09004KT P6SM BKN025 OVC080
     FM270000 04004KT P6SM SCT025 OVC080=

USA.gov is the U.S. government's official web portal to all federal, state and local government web resources and services.